Roosevelt, Washington
Current Conditions -  °F | °C
As of 12:53 AM on Wednesday 22 Oct 2014 (Local Time) from KHRI Reporting Station
Clear Clear  
Wind Chill: 38°   Ceiling: Unl
Heat Index: 42°   Visibility: 10mi
Dew Point: 39°   Wind: 6mph
Humidity: 89%   Direction: 140°SE
Pressure: 29.9"   Gusts: NA
Location:  45.74°N, 120.21°W
Report Text: KHRI 220753Z AUTO 14005KT 10SM CLR 06/04 A2990 RMK AO2 SLP124 T00560039 401940050
Loading
Personal Weather Stations






























Interactive Weather Map New forecast layout! Learn more

10-Day Weather Forecast

Advertisements
Track Severe Weather on mobile